createdAt,value
2022-12-17T00:01:54.313Z,73.29
2022-12-17T00:04:40.050Z,73.28
2022-12-17T00:07:25.747Z,73.50
2022-12-17T00:10:11.470Z,73.13
2022-12-17T00:12:57.319Z,72.81
2022-12-17T00:15:43.521Z,73.31
2022-12-17T00:18:30.973Z,72.59
2022-12-17T00:21:18.705Z,72.66
2022-12-17T00:24:04.722Z,72.70
2022-12-17T00:26:50.699Z,73.26
2022-12-17T00:29:36.749Z,73.27
2022-12-17T00:32:22.899Z,73.61
2022-12-17T00:35:09.338Z,73.69
2022-12-17T00:37:55.199Z,73.69
2022-12-17T00:40:41.850Z,73.88
2022-12-17T00:43:31.018Z,74.10
2022-12-17T00:46:17.497Z,73.78
2022-12-17T00:49:03.448Z,74.20
2022-12-17T00:51:49.479Z,73.93
2022-12-17T00:54:35.626Z,73.70
2022-12-17T00:57:21.166Z,73.79
2022-12-17T01:00:06.905Z,73.46
2022-12-17T01:02:52.830Z,73.72
2022-12-17T01:05:39.499Z,73.67
2022-12-17T01:08:32.245Z,73.60
2022-12-17T01:11:23.282Z,73.30
2022-12-17T01:14:09.764Z,73.61
2022-12-17T01:16:56.305Z,73.43
2022-12-17T01:19:42.529Z,73.47
2022-12-17T01:22:30.679Z,73.40
2022-12-17T01:25:16.261Z,72.98
2022-12-17T01:28:01.630Z,73.09
2022-12-17T01:30:47.521Z,72.82
2022-12-17T01:33:46.931Z,72.94
2022-12-17T01:36:32.778Z,73.29
2022-12-17T01:39:18.458Z,73.11
2022-12-17T01:42:04.339Z,72.80
2022-12-17T01:45:08.478Z,73.02
2022-12-17T01:47:57.184Z,73.00
2022-12-17T01:50:46.478Z,72.89
2022-12-17T01:53:34.533Z,73.00
2022-12-17T01:56:21.001Z,73.12
2022-12-17T01:59:07.160Z,73.09
2022-12-17T02:01:53.696Z,72.87
2022-12-17T02:04:39.720Z,72.68
2022-12-17T02:07:25.268Z,72.38
2022-12-17T02:10:29.598Z,71.84
2022-12-17T02:13:23.699Z,72.34
2022-12-17T02:16:22.255Z,72.00
2022-12-17T02:19:20.818Z,72.54
2022-12-17T02:22:12.819Z,72.87
2022-12-17T02:25:24.839Z,73.94
2022-12-17T02:28:11.618Z,74.31
2022-12-17T02:30:57.838Z,74.52
2022-12-17T02:33:43.799Z,74.36
2022-12-17T02:36:34.378Z,73.78
2022-12-17T02:39:20.300Z,73.97
2022-12-17T02:42:11.700Z,73.78
2022-12-17T02:44:59.720Z,73.79
2022-12-17T02:47:47.381Z,74.30
2022-12-17T02:50:33.688Z,74.65
2022-12-17T02:53:22.039Z,74.59
2022-12-17T02:56:07.319Z,75.10
2022-12-17T02:58:55.839Z,75.14
2022-12-17T03:01:41.606Z,74.92
2022-12-17T03:04:27.100Z,75.30
2022-12-17T03:07:12.704Z,74.83
2022-12-17T03:09:58.421Z,75.20
2022-12-17T03:12:44.258Z,75.28
2022-12-17T03:15:30.100Z,74.79
2022-12-17T03:18:15.840Z,74.74
2022-12-17T03:21:01.459Z,75.00
2022-12-17T03:23:47.306Z,74.99
2022-12-17T03:26:32.908Z,74.85
2022-12-17T03:29:18.658Z,74.84
2022-12-17T03:32:04.378Z,74.63
2022-12-17T03:34:50.238Z,74.53
2022-12-17T03:37:35.940Z,74.30
2022-12-17T03:40:21.672Z,74.42
2022-12-17T03:43:07.540Z,74.09
2022-12-17T03:45:53.286Z,74.10
2022-12-17T03:48:39.100Z,74.18
2022-12-17T03:51:24.940Z,74.57
2022-12-17T03:54:10.625Z,74.41
2022-12-17T03:56:56.470Z,74.61
2022-12-17T03:59:42.047Z,74.56
2022-12-17T04:02:27.995Z,74.56
2022-12-17T04:05:18.310Z,74.50
2022-12-17T04:08:05.953Z,74.15
2022-12-17T04:10:51.249Z,74.30
2022-12-17T04:13:40.761Z,74.08
2022-12-17T04:16:27.759Z,74.31
2022-12-17T04:19:13.379Z,74.06
2022-12-17T04:21:59.120Z,73.99
2022-12-17T04:24:44.700Z,74.20
2022-12-17T04:27:30.123Z,74.02
2022-12-17T04:30:15.706Z,73.75
2022-12-17T04:33:01.049Z,74.12
2022-12-17T04:35:46.778Z,73.89
2022-12-17T04:38:32.319Z,73.95
2022-12-17T04:41:17.898Z,73.73
2022-12-17T04:44:03.792Z,73.96
2022-12-17T04:46:49.458Z,74.07
2022-12-17T04:49:35.088Z,73.91
2022-12-17T04:52:20.782Z,73.72
2022-12-17T04:55:06.157Z,73.47
2022-12-17T04:57:52.389Z,73.82
2022-12-17T05:00:38.399Z,73.70
2022-12-17T05:03:31.889Z,73.80
2022-12-17T05:06:18.538Z,73.74
2022-12-17T05:09:04.338Z,73.84
2022-12-17T05:11:50.001Z,74.28
2022-12-17T05:14:36.160Z,74.25
2022-12-17T05:17:21.724Z,74.72
2022-12-17T05:20:07.574Z,74.72
2022-12-17T05:22:53.575Z,74.91
2022-12-17T05:25:39.212Z,74.80
2022-12-17T05:28:24.750Z,74.41
2022-12-17T05:31:12.114Z,74.09
2022-12-17T05:33:58.173Z,74.86
2022-12-17T05:36:44.219Z,74.54
2022-12-17T05:39:29.900Z,74.98
2022-12-17T05:42:15.538Z,74.93
2022-12-17T05:45:01.255Z,75.02
2022-12-17T05:47:46.976Z,74.53
2022-12-17T05:50:32.935Z,74.79
2022-12-17T05:53:23.735Z,74.88
2022-12-17T05:56:11.661Z,74.99
2022-12-17T05:58:58.337Z,74.99
2022-12-17T06:01:44.157Z,74.41
2022-12-17T06:04:30.292Z,74.35
2022-12-17T06:07:15.814Z,74.46
2022-12-17T06:10:01.334Z,74.49
2022-12-17T06:12:46.894Z,74.39
2022-12-17T06:15:32.740Z,74.18
2022-12-17T06:18:18.414Z,74.46
2022-12-17T06:21:04.980Z,73.80
2022-12-17T06:23:50.417Z,74.31
2022-12-17T06:26:36.013Z,74.35
2022-12-17T06:29:21.817Z,74.12
2022-12-17T06:32:07.693Z,73.99
2022-12-17T06:34:53.173Z,73.63
2022-12-17T06:37:39.175Z,74.05
2022-12-17T06:40:25.261Z,74.59
2022-12-17T06:43:12.856Z,74.50
2022-12-17T06:45:59.138Z,74.77
2022-12-17T06:48:44.814Z,74.55
2022-12-17T06:51:30.373Z,73.73
2022-12-17T06:54:16.052Z,73.84
2022-12-17T06:57:01.575Z,74.41
2022-12-17T06:59:54.974Z,74.50
2022-12-17T07:02:40.820Z,74.92
2022-12-17T07:05:26.496Z,74.92
2022-12-17T07:08:18.896Z,74.27
2022-12-17T07:11:05.018Z,74.40
2022-12-17T07:13:50.586Z,74.11
2022-12-17T07:16:36.287Z,74.04
2022-12-17T07:19:27.003Z,74.48
2022-12-17T07:22:13.144Z,74.77
2022-12-17T07:24:58.815Z,74.86
2022-12-17T07:27:44.373Z,74.60
2022-12-17T07:30:31.172Z,75.13
2022-12-17T07:33:22.053Z,74.75
2022-12-17T07:36:08.180Z,75.06
2022-12-17T07:38:54.053Z,74.68
2022-12-17T07:41:39.792Z,74.48
2022-12-17T07:44:25.175Z,74.15
2022-12-17T07:47:10.788Z,74.14
2022-12-17T07:49:56.620Z,74.67
2022-12-17T07:52:42.053Z,74.62
2022-12-17T07:55:28.654Z,73.75
2022-12-17T07:58:22.573Z,74.22
2022-12-17T08:01:08.339Z,74.10
2022-12-17T08:04:13.860Z,74.28
2022-12-17T08:07:04.098Z,73.94
2022-12-17T08:09:52.853Z,73.76
2022-12-17T08:12:38.972Z,73.57
2022-12-17T08:15:24.892Z,73.50
2022-12-17T08:18:10.934Z,73.25
2022-12-17T08:20:56.415Z,72.85
2022-12-17T08:23:41.901Z,73.57
2022-12-17T08:26:27.495Z,73.73
2022-12-17T08:29:13.252Z,73.28
2022-12-17T08:31:59.133Z,73.79
2022-12-17T08:34:44.654Z,73.24
2022-12-17T08:37:30.332Z,73.74
2022-12-17T08:40:16.454Z,73.86
2022-12-17T08:43:02.073Z,73.59
2022-12-17T08:45:47.818Z,73.58
2022-12-17T08:48:33.697Z,73.76
2022-12-17T08:51:19.333Z,73.67
2022-12-17T08:54:09.734Z,73.12
2022-12-17T08:56:55.666Z,73.49
2022-12-17T08:59:42.857Z,73.25
2022-12-17T09:02:29.225Z,73.22
2022-12-17T09:05:15.134Z,73.29
2022-12-17T09:08:06.787Z,73.40
2022-12-17T09:10:52.495Z,73.48
2022-12-17T09:13:38.846Z,73.67
2022-12-17T09:16:25.281Z,73.92
2022-12-17T09:19:10.974Z,73.49
2022-12-17T09:21:56.584Z,73.35
2022-12-17T09:24:42.133Z,72.94
2022-12-17T09:27:27.693Z,72.88
2022-12-17T09:30:13.654Z,72.96
2022-12-17T09:32:59.533Z,72.86
2022-12-17T09:35:45.220Z,73.01
2022-12-17T09:38:32.382Z,73.33
2022-12-17T09:41:48.575Z,73.35
2022-12-17T09:44:44.294Z,73.57
2022-12-17T09:47:45.135Z,73.62
2022-12-17T09:50:35.470Z,73.37
2022-12-17T09:53:28.148Z,73.21
2022-12-17T09:56:13.856Z,72.45
2022-12-17T09:58:59.734Z,72.61
2022-12-17T10:01:53.590Z,72.72
2022-12-17T10:04:48.536Z,73.07
2022-12-17T10:07:39.614Z,73.39
2022-12-17T10:10:43.934Z,73.51
2022-12-17T10:13:34.597Z,73.45
2022-12-17T10:16:20.947Z,73.42
2022-12-17T10:19:08.855Z,73.45
2022-12-17T10:21:56.983Z,73.18
2022-12-17T10:24:42.700Z,73.11
2022-12-17T10:27:30.372Z,73.12
2022-12-17T10:30:20.452Z,73.18
2022-12-17T10:33:14.932Z,72.65
2022-12-17T10:36:00.573Z,72.64
2022-12-17T10:38:48.981Z,73.24
2022-12-17T10:41:46.853Z,73.19
2022-12-17T10:44:52.974Z,73.20
2022-12-17T10:47:44.575Z,73.33
2022-12-17T10:50:31.654Z,73.07
2022-12-17T10:53:18.773Z,73.23
2022-12-17T10:56:15.653Z,72.99
2022-12-17T10:59:08.174Z,73.07
2022-12-17T11:01:56.598Z,72.98
2022-12-17T11:04:46.053Z,72.47
2022-12-17T11:07:42.132Z,72.18
2022-12-17T11:10:47.621Z,71.94
2022-12-17T11:13:41.532Z,71.72
2022-12-17T11:16:47.056Z,71.59
2022-12-17T11:19:41.292Z,71.55
2022-12-17T11:22:42.174Z,71.72
2022-12-17T11:25:45.096Z,72.28
2022-12-17T11:28:42.941Z,72.21
2022-12-17T11:31:45.959Z,72.20
2022-12-17T11:34:46.773Z,72.26
2022-12-17T11:37:32.694Z,71.83
2022-12-17T11:40:44.693Z,71.93
2022-12-17T11:43:47.980Z,71.98
2022-12-17T11:46:58.202Z,71.44
2022-12-17T11:50:16.221Z,71.01
2022-12-17T11:53:49.575Z,70.44
2022-12-17T11:56:57.137Z,70.00
2022-12-17T11:59:53.230Z,69.63
2022-12-17T12:13:48.761Z,70.95
2022-12-17T12:16:56.004Z,65.51
2022-12-17T12:19:53.372Z,61.36
2022-12-17T12:22:59.017Z,58.71
2022-12-17T12:25:50.772Z,57.25
2022-12-17T12:29:30.146Z,57.26
2022-12-17T12:32:18.540Z,58.21
2022-12-17T12:35:04.773Z,58.10
2022-12-17T12:37:51.532Z,58.79
2022-12-17T12:40:39.941Z,59.42
2022-12-17T12:43:40.300Z,60.46
2022-12-17T12:46:37.052Z,60.82
2022-12-17T12:49:47.416Z,60.57
2022-12-17T12:52:39.455Z,60.17
2022-12-17T12:55:25.773Z,60.74
2022-12-17T12:58:43.014Z,60.78
2022-12-17T13:01:29.572Z,60.38
2022-12-17T13:04:18.016Z,60.90
2022-12-17T13:06:46.983Z,59.39
2022-12-17T13:09:17.734Z,58.84
2022-12-17T13:11:48.536Z,56.63
2022-12-17T13:14:37.017Z,52.58
2022-12-17T13:17:23.135Z,48.86
2022-12-17T13:20:00.942Z,45.30
2022-12-17T13:22:29.868Z,40.01
2022-12-17T13:25:18.054Z,39.62
2022-12-17T13:27:45.822Z,39.76
2022-12-17T13:30:18.936Z,39.31
2022-12-17T13:33:27.815Z,39.87
2022-12-17T13:36:00.612Z,40.56
2022-12-17T13:38:52.134Z,40.96
2022-12-17T13:41:22.573Z,42.30
2022-12-17T13:43:52.738Z,44.21
2022-12-17T13:46:22.675Z,45.50
2022-12-17T13:48:58.052Z,47.32
2022-12-17T13:51:30.939Z,47.96
2022-12-17T13:54:00.577Z,47.84
2022-12-17T13:56:29.237Z,48.66
2022-12-17T13:58:59.270Z,50.57
2022-12-17T14:01:30.448Z,51.89
2022-12-17T14:04:07.597Z,52.50
2022-12-17T14:06:38.058Z,53.54
2022-12-17T14:09:06.452Z,53.86
2022-12-17T14:11:52.554Z,54.38
2022-12-17T14:14:40.615Z,54.58
2022-12-17T14:17:15.527Z,55.19
2022-12-17T14:19:42.853Z,55.29
2022-12-17T14:22:25.092Z,55.35
2022-12-17T14:24:52.381Z,55.58
2022-12-17T14:27:27.300Z,56.02
2022-12-17T14:29:54.533Z,56.50
2022-12-17T14:32:36.178Z,56.87
2022-12-17T14:35:04.372Z,56.97
2022-12-17T14:37:31.866Z,57.17
2022-12-17T14:40:05.575Z,56.86
2022-12-17T14:42:37.096Z,56.73
2022-12-17T14:45:23.414Z,56.77
2022-12-17T14:48:04.575Z,57.09
2022-12-17T14:50:37.092Z,57.33
2022-12-17T14:53:25.900Z,57.53
2022-12-17T14:55:59.051Z,57.39
2022-12-17T14:58:27.932Z,57.34
2022-12-17T15:01:11.703Z,57.12
2022-12-17T15:03:46.479Z,56.51
2022-12-17T15:06:18.657Z,57.44
2022-12-17T15:08:48.452Z,57.76
2022-12-17T15:11:19.493Z,58.21
2022-12-17T15:13:49.247Z,57.84
2022-12-17T15:16:20.139Z,58.21
2022-12-17T15:18:47.422Z,58.69
2022-12-17T15:21:15.258Z,58.52
2022-12-17T15:23:45.218Z,58.06
2022-12-17T15:26:14.217Z,57.92
2022-12-17T15:28:44.853Z,57.58
2022-12-17T15:31:13.721Z,57.70
2022-12-17T15:33:41.981Z,57.93
2022-12-17T15:36:13.532Z,57.38
2022-12-17T15:38:41.068Z,57.46
2022-12-17T15:41:26.937Z,57.17
2022-12-17T15:43:54.133Z,57.79
2022-12-17T15:46:21.311Z,57.74
2022-12-17T15:48:50.834Z,57.42
2022-12-17T15:51:21.226Z,57.78
2022-12-17T15:53:48.693Z,58.31
2022-12-17T15:56:24.535Z,58.07
2022-12-17T15:58:52.504Z,57.80
2022-12-17T16:01:20.536Z,57.96
2022-12-17T16:03:47.745Z,57.66
2022-12-17T16:06:15.144Z,57.79
2022-12-17T16:08:42.947Z,57.48
2022-12-17T16:11:12.614Z,57.17
2022-12-17T16:13:40.179Z,56.96
2022-12-17T16:16:08.215Z,57.35
2022-12-17T16:18:36.261Z,57.41
2022-12-17T16:21:04.663Z,57.24
2022-12-17T16:23:31.733Z,57.76
2022-12-17T16:26:00.814Z,58.22
2022-12-17T16:28:28.978Z,58.83
2022-12-17T16:31:05.140Z,60.06
2022-12-17T16:33:38.296Z,59.41
2022-12-17T16:36:07.655Z,59.91
2022-12-17T16:38:36.354Z,59.55
2022-12-17T16:41:04.022Z,59.15
2022-12-17T16:43:34.297Z,59.32
2022-12-17T16:46:03.152Z,59.70
2022-12-17T16:48:37.910Z,60.49
2022-12-17T16:51:21.085Z,60.17
2022-12-17T16:53:53.336Z,60.25
2022-12-17T16:56:25.972Z,60.26
2022-12-17T16:58:53.413Z,60.01
2022-12-17T17:01:22.891Z,59.97
2022-12-17T17:03:50.582Z,59.75
2022-12-17T17:06:19.013Z,59.88
2022-12-17T17:08:46.972Z,59.78
2022-12-17T17:11:17.057Z,59.54
2022-12-17T17:13:44.261Z,59.59
2022-12-17T17:16:12.523Z,59.28
2022-12-17T17:18:40.309Z,59.33
2022-12-17T17:21:15.654Z,59.55
2022-12-17T17:23:43.253Z,59.46
2022-12-17T17:26:11.013Z,59.37
2022-12-17T17:28:39.063Z,58.86
2022-12-17T17:31:08.947Z,59.17
2022-12-17T17:33:38.894Z,58.85
2022-12-17T17:36:07.454Z,58.31
2022-12-17T17:38:36.401Z,58.13
2022-12-17T17:41:05.015Z,58.25
2022-12-17T17:43:32.973Z,57.86
2022-12-17T17:46:06.454Z,58.28
2022-12-17T17:48:34.568Z,58.39
2022-12-17T17:51:05.454Z,58.55
2022-12-17T17:53:32.694Z,58.68
2022-12-17T17:56:08.013Z,58.36
2022-12-17T17:58:36.077Z,59.20
2022-12-17T18:01:11.620Z,60.09
2022-12-17T18:03:39.047Z,60.60
2022-12-17T18:06:08.091Z,61.09
2022-12-17T18:08:37.404Z,61.73
2022-12-17T18:11:06.975Z,62.44
2022-12-17T18:13:53.617Z,62.10
2022-12-17T18:16:23.645Z,62.02
2022-12-17T18:18:51.335Z,61.33
2022-12-17T18:21:20.383Z,60.50
2022-12-17T18:23:48.332Z,60.00
2022-12-17T18:26:19.134Z,59.48
2022-12-17T18:28:47.896Z,58.82
2022-12-17T18:31:18.443Z,58.57
2022-12-17T18:33:48.173Z,58.68
2022-12-17T18:36:21.332Z,58.47
2022-12-17T18:38:54.895Z,58.34
2022-12-17T18:41:40.576Z,58.83
2022-12-17T18:44:08.295Z,58.49
2022-12-17T18:46:35.694Z,58.55
2022-12-17T18:49:06.173Z,58.60
2022-12-17T18:51:35.177Z,58.63
2022-12-17T18:54:03.414Z,58.73
2022-12-17T18:56:59.556Z,58.68
2022-12-17T18:59:24.193Z,58.58
2022-12-17T19:01:56.777Z,58.52
2022-12-17T19:04:24.907Z,58.85
2022-12-17T19:06:53.832Z,58.77
2022-12-17T19:09:36.388Z,58.51
2022-12-17T19:12:06.698Z,58.02
2022-12-17T19:14:34.972Z,58.34
2022-12-17T19:17:02.175Z,58.33
2022-12-17T19:19:29.583Z,57.69
2022-12-17T19:21:58.934Z,57.67
2022-12-17T19:24:26.296Z,58.02
2022-12-17T19:26:53.692Z,58.19
2022-12-17T19:29:21.621Z,58.11
2022-12-17T19:31:49.605Z,58.27
2022-12-17T19:34:17.316Z,58.24
2022-12-17T19:36:46.390Z,58.40
2022-12-17T19:39:19.493Z,58.39
2022-12-17T19:41:47.019Z,58.57
2022-12-17T19:44:16.140Z,58.75
2022-12-17T19:46:44.376Z,58.73
2022-12-17T19:49:15.027Z,58.71
2022-12-17T19:51:44.697Z,58.72
2022-12-17T19:54:15.590Z,59.31
2022-12-17T19:56:45.118Z,59.31
2022-12-17T19:59:13.378Z,59.19
2022-12-17T20:01:42.305Z,59.11
2022-12-17T20:04:11.965Z,59.25
2022-12-17T20:06:39.622Z,59.51
2022-12-17T20:09:07.097Z,59.48
2022-12-17T20:11:35.933Z,59.12
2022-12-17T20:14:10.266Z,59.15
2022-12-17T20:16:43.373Z,58.81
2022-12-17T20:19:22.278Z,59.18
2022-12-17T20:21:50.575Z,59.57
2022-12-17T20:24:18.704Z,59.41
2022-12-17T20:26:46.292Z,59.68
2022-12-17T20:29:13.621Z,59.90
2022-12-17T20:31:45.431Z,60.02
2022-12-17T20:34:16.655Z,59.95
2022-12-17T20:36:44.734Z,59.91
2022-12-17T20:39:12.693Z,60.06
2022-12-17T20:41:40.652Z,60.05
2022-12-17T20:44:13.705Z,60.12
2022-12-17T20:46:42.142Z,60.34
2022-12-17T20:49:11.986Z,60.47
2022-12-17T20:51:39.413Z,60.57
2022-12-17T20:54:08.735Z,60.98
2022-12-17T20:56:36.734Z,60.94
2022-12-17T20:59:09.295Z,61.51
2022-12-17T21:01:37.669Z,61.56
2022-12-17T21:04:07.710Z,61.64
2022-12-17T21:06:40.474Z,61.93
2022-12-17T21:09:08.453Z,61.55
2022-12-17T21:11:37.458Z,61.86
2022-12-17T21:14:09.269Z,61.71
2022-12-17T21:16:39.143Z,61.50
2022-12-17T21:19:08.929Z,60.59
2022-12-17T21:21:38.053Z,60.30
2022-12-17T21:24:06.456Z,60.83
2022-12-17T21:26:36.817Z,61.04
2022-12-17T21:29:06.351Z,60.75
2022-12-17T21:31:38.187Z,61.33
2022-12-17T21:34:07.214Z,61.32
2022-12-17T21:36:35.542Z,61.48
2022-12-17T21:39:08.700Z,61.17
2022-12-17T21:41:40.308Z,61.11
2022-12-17T21:44:15.298Z,61.34
2022-12-17T21:46:43.367Z,61.88
2022-12-17T21:49:11.456Z,61.94
2022-12-17T21:51:38.822Z,62.11
2022-12-17T21:54:08.629Z,62.09
2022-12-17T21:56:36.893Z,62.08
2022-12-17T21:59:04.460Z,61.68
2022-12-17T22:01:34.392Z,61.72
2022-12-17T22:04:03.684Z,61.72
2022-12-17T22:06:36.933Z,62.00
2022-12-17T22:09:13.976Z,61.97
2022-12-17T22:12:15.533Z,62.08
2022-12-17T22:14:42.933Z,61.93
2022-12-17T22:17:10.175Z,62.09
2022-12-17T22:19:37.413Z,62.18
2022-12-17T22:22:04.655Z,61.90
2022-12-17T22:24:36.211Z,61.91
2022-12-17T22:27:08.462Z,61.83
2022-12-17T22:29:55.912Z,61.92
2022-12-17T22:32:41.577Z,61.86
2022-12-17T22:36:19.455Z,61.93
2022-12-17T22:41:45.021Z,61.96
2022-12-17T22:44:29.476Z,61.59
2022-12-17T22:44:31.216Z,61.87
2022-12-17T22:46:19.730Z,61.71
2022-12-17T22:48:47.462Z,61.57
2022-12-17T22:51:18.727Z,61.42
2022-12-17T22:53:53.307Z,61.59
2022-12-17T22:56:30.679Z,61.35
2022-12-17T22:59:08.733Z,61.57
2022-12-17T23:01:35.965Z,61.16
2022-12-17T23:04:04.075Z,61.25
2022-12-17T23:06:31.252Z,61.08
2022-12-17T23:08:59.386Z,60.39
2022-12-17T23:11:28.336Z,60.99
2022-12-17T23:13:56.413Z,61.09
2022-12-17T23:16:24.008Z,60.94
2022-12-17T23:18:52.337Z,60.54
2022-12-17T23:21:25.333Z,60.68
2022-12-17T23:23:54.375Z,60.66
2022-12-17T23:26:30.896Z,60.77
2022-12-17T23:28:59.974Z,60.51
2022-12-17T23:31:29.225Z,60.47
2022-12-17T23:33:56.933Z,60.68
2022-12-17T23:36:26.014Z,60.34
2022-12-17T23:38:55.674Z,60.53
2022-12-17T23:41:26.053Z,60.50
2022-12-17T23:43:53.933Z,60.77
2022-12-17T23:46:22.040Z,60.58
2022-12-17T23:48:49.372Z,60.72
2022-12-17T23:51:20.915Z,60.90
2022-12-17T23:53:48.777Z,61.00
2022-12-17T23:56:19.492Z,60.99
2022-12-17T23:58:48.414Z,60.90
